Time;durP1;ratioP1;P1;durP2;ratioP2;P2;SDS_P1;SDS_P2;PMS_P1;PMS_P2;Temp;Humidity;BMP_temperature;BMP_pressure;BME280_temperature;BME280_humidity;BME280_pressure;Samples;Min_cycle;Max_cycle;Signal;HPM_P1;HPM_P2
2020/12/22 00:01:14;;;;;;;15.40;10.07;;;5.40;99.90;;;;;;5032188;28;20199;-70
2020/12/22 00:03:40;;;;;;;16.47;11.93;;;5.40;99.90;;;;;;5032074;28;20895;-71
2020/12/22 00:06:06;;;;;;;16.80;11.60;;;5.40;99.90;;;;;;5032595;28;20433;-71
2020/12/22 00:08:31;;;;;;;16.60;10.53;;;5.50;99.90;;;;;;5032236;28;20501;-71
2020/12/22 00:10:57;;;;;;;14.23;10.20;;;5.50;99.90;;;;;;5032038;28;20175;-71
2020/12/22 00:13:23;;;;;;;20.20;13.73;;;5.50;99.90;;;;;;5031535;28;20208;-71
2020/12/22 00:15:48;;;;;;;14.07;11.20;;;5.50;99.90;;;;;;5031061;28;20175;-70
2020/12/22 00:18:14;;;;;;;18.03;11.77;;;5.50;99.90;;;;;;5034385;28;20178;-71
2020/12/22 00:20:39;;;;;;;16.87;11.57;;;5.60;99.90;;;;;;5036484;28;20198;-71
2020/12/22 00:23:05;;;;;;;19.90;12.57;;;5.60;99.90;;;;;;5035993;28;20178;-71
2020/12/22 00:25:31;;;;;;;18.80;14.00;;;5.60;99.90;;;;;;5036256;28;20183;-72
2020/12/22 00:27:59;;;;;;;16.77;11.10;;;5.60;99.90;;;;;;5035950;28;20202;-71
2020/12/22 00:30:24;;;;;;;17.07;12.13;;;5.60;99.90;;;;;;5035963;28;20218;-71
2020/12/22 00:32:50;;;;;;;16.60;11.33;;;5.70;99.90;;;;;;5036027;28;20853;-70
2020/12/22 00:35:15;;;;;;;17.40;11.00;;;5.70;99.90;;;;;;5036012;28;20543;-70
2020/12/22 00:37:41;;;;;;;17.93;12.60;;;5.70;99.90;;;;;;5035937;28;20187;-71
2020/12/22 00:40:06;;;;;;;16.57;12.00;;;5.70;99.90;;;;;;5035756;28;20198;-71
2020/12/22 00:42:32;;;;;;;18.83;12.60;;;5.70;99.90;;;;;;5035816;28;20198;-71
2020/12/22 00:44:59;;;;;;;16.40;12.07;;;5.70;99.90;;;;;;5034269;28;20187;-71
2020/12/22 00:47:25;;;;;;;16.40;11.00;;;5.70;99.90;;;;;;5035884;28;20460;-71
2020/12/22 00:49:51;;;;;;;15.23;11.87;;;5.70;99.90;;;;;;5035732;28;20434;-70
2020/12/22 00:52:17;;;;;;;17.70;12.60;;;5.80;99.90;;;;;;5035689;28;20414;-71
2020/12/22 00:54:42;;;;;;;15.83;11.80;;;5.80;99.90;;;;;;5035493;28;20180;-69
2020/12/22 00:57:08;;;;;;;18.60;11.20;;;5.80;99.90;;;;;;5035668;28;20414;-70
2020/12/22 00:59:36;;;;;;;15.00;11.50;;;5.80;99.90;;;;;;5035182;28;20613;-71
2020/12/22 01:02:04;;;;;;;16.17;11.90;;;5.80;99.90;;;;;;5035893;28;20594;-71
2020/12/22 01:04:29;;;;;;;18.73;11.70;;;5.80;99.90;;;;;;5035144;28;20406;-70
2020/12/22 01:06:55;;;;;;;16.13;12.20;;;5.90;99.90;;;;;;5035312;28;20461;-70
2020/12/22 01:09:20;;;;;;;19.03;13.80;;;5.90;99.90;;;;;;5035023;28;20262;-70
2020/12/22 01:11:46;;;;;;;18.30;13.23;;;5.90;99.90;;;;;;5035283;28;20250;-71
2020/12/22 01:14:11;;;;;;;16.60;11.90;;;5.90;99.90;;;;;;5034379;28;20616;-70
2020/12/22 01:16:36;;;;;;;17.23;12.90;;;5.90;99.90;;;;;;5034747;28;20168;-71
2020/12/22 01:19:02;;;;;;;17.37;11.80;;;6.00;99.90;;;;;;5034574;28;20265;-71
2020/12/22 01:21:27;;;;;;;22.73;13.10;;;6.00;99.90;;;;;;5034689;28;20167;-71
2020/12/22 01:23:53;;;;;;;15.50;11.23;;;6.00;99.90;;;;;;5034802;28;20169;-71
2020/12/22 01:26:20;;;;;;;18.13;12.00;;;5.90;99.90;;;;;;5034082;28;20560;-71
2020/12/22 01:28:46;;;;;;;15.33;11.40;;;6.00;99.90;;;;;;5033450;28;20214;-71
2020/12/22 01:31:12;;;;;;;18.27;12.53;;;6.00;99.90;;;;;;5034492;28;20410;-71
2020/12/22 01:33:37;;;;;;;16.13;12.43;;;6.00;99.90;;;;;;5034598;28;20631;-71
2020/12/22 01:36:03;;;;;;;16.63;11.70;;;6.00;99.90;;;;;;5033908;28;20628;-71
2020/12/22 01:38:28;;;;;;;17.27;12.10;;;6.10;99.90;;;;;;5034169;28;20222;-71
2020/12/22 01:40:53;;;;;;;15.30;11.40;;;6.10;99.90;;;;;;5034055;28;20174;-71
2020/12/22 01:43:19;;;;;;;14.27;10.53;;;6.10;99.90;;;;;;5034319;28;20170;-70
2020/12/22 01:45:44;;;;;;;17.93;11.93;;;6.20;99.90;;;;;;5034098;28;20179;-71
2020/12/22 01:48:11;;;;;;;16.13;11.47;;;6.10;99.90;;;;;;5034230;28;20200;-71
2020/12/22 01:50:37;;;;;;;14.23;12.30;;;6.20;99.90;;;;;;5034189;28;20227;-70
2020/12/22 01:53:02;;;;;;;17.17;10.80;;;6.20;99.90;;;;;;5034147;28;20490;-71
2020/12/22 01:55:28;;;;;;;19.57;11.80;;;6.30;99.90;;;;;;5033794;28;20505;-71
2020/12/22 01:57:54;;;;;;;17.83;11.50;;;6.30;99.90;;;;;;5034098;28;20222;-70
2020/12/22 02:00:19;;;;;;;17.63;12.87;;;6.30;99.90;;;;;;5032675;28;20195;-71
2020/12/22 02:02:44;;;;;;;18.07;11.60;;;6.30;99.90;;;;;;5033913;28;20179;-71
2020/12/22 02:05:11;;;;;;;16.97;11.37;;;6.30;99.90;;;;;;5033913;28;20658;-71
2020/12/22 02:07:37;;;;;;;18.53;12.60;;;6.40;99.90;;;;;;5033354;28;20218;-71
2020/12/22 02:10:03;;;;;;;14.90;11.83;;;6.30;99.90;;;;;;5033629;28;20450;-71
2020/12/22 02:12:29;;;;;;;14.63;11.07;;;6.30;99.90;;;;;;5033869;28;20168;-71
2020/12/22 02:14:55;;;;;;;18.20;12.77;;;6.30;99.90;;;;;;5033860;28;20413;-71
2020/12/22 02:17:20;;;;;;;19.10;13.33;;;6.30;99.90;;;;;;5033222;28;20178;-71
2020/12/22 02:19:46;;;;;;;20.70;14.50;;;6.30;99.90;;;;;;5033324;28;20197;-72
2020/12/22 02:22:11;;;;;;;15.80;12.13;;;6.30;99.90;;;;;;5033673;28;20595;-72
2020/12/22 02:24:37;;;;;;;18.70;12.80;;;6.30;99.90;;;;;;5033495;28;20164;-72
2020/12/22 02:27:04;;;;;;;18.80;12.43;;;6.20;99.90;;;;;;5032830;28;20195;-70
2020/12/22 02:29:30;;;;;;;17.67;13.00;;;6.30;99.90;;;;;;5033372;28;20607;-74
2020/12/22 02:31:58;;;;;;;18.00;12.23;;;6.20;99.90;;;;;;5033323;28;20433;-72
2020/12/22 02:34:24;;;;;;;19.70;12.63;;;6.20;99.90;;;;;;5033321;28;20445;-72
2020/12/22 02:36:49;;;;;;;18.53;12.90;;;6.20;99.90;;;;;;5032795;28;20430;-69
2020/12/22 02:39:14;;;;;;;15.37;12.83;;;6.20;99.90;;;;;;5032912;28;20191;-68
2020/12/22 02:41:40;;;;;;;18.63;13.70;;;6.20;99.90;;;;;;5032208;28;20176;-71
2020/12/22 02:44:05;;;;;;;19.37;12.90;;;6.20;99.90;;;;;;5033045;28;20168;-71
2020/12/22 02:46:32;;;;;;;20.23;14.70;;;6.20;99.90;;;;;;5033099;28;20179;-71
2020/12/22 02:48:57;;;;;;;19.80;13.27;;;6.20;99.90;;;;;;5032414;28;20227;-72
2020/12/22 02:51:23;;;;;;;22.23;13.57;;;6.20;99.90;;;;;;5031424;28;20438;-72
2020/12/22 02:53:48;;;;;;;18.60;13.10;;;6.20;99.90;;;;;;5032922;28;20747;-73
2020/12/22 02:56:14;;;;;;;17.60;13.27;;;6.20;99.90;;;;;;5032955;28;20237;-72
2020/12/22 02:58:39;;;;;;;19.63;13.77;;;6.30;99.90;;;;;;5032301;28;20179;-69
2020/12/22 03:01:05;;;;;;;21.60;14.37;;;6.20;99.90;;;;;;5032797;28;20179;-74
2020/12/22 03:03:30;;;;;;;20.90;13.10;;;6.20;99.90;;;;;;5032639;28;20226;-72
2020/12/22 03:05:56;;;;;;;17.53;12.50;;;6.20;99.90;;;;;;5032559;28;20206;-71
2020/12/22 03:08:21;;;;;;;19.07;12.13;;;6.30;99.90;;;;;;5032080;28;20214;-70
2020/12/22 03:10:49;;;;;;;17.17;13.17;;;6.30;99.90;;;;;;5032365;28;20592;-72
2020/12/22 03:13:14;;;;;;;19.80;14.53;;;6.30;99.90;;;;;;5032749;28;20175;-72
2020/12/22 03:15:40;;;;;;;17.10;12.10;;;6.30;99.90;;;;;;5032658;28;20611;-72
2020/12/22 03:18:06;;;;;;;22.27;13.80;;;6.30;99.90;;;;;;5031831;28;20543;-74
2020/12/22 03:20:31;;;;;;;20.80;14.07;;;6.30;99.90;;;;;;5032245;28;20214;-74
2020/12/22 03:22:57;;;;;;;21.53;13.53;;;6.30;99.90;;;;;;5032380;28;20411;-74
2020/12/22 03:25:22;;;;;;;18.17;12.70;;;6.30;99.90;;;;;;5032456;28;20175;-73
2020/12/22 03:27:48;;;;;;;18.83;14.13;;;6.30;99.90;;;;;;5032098;28;20580;-73
2020/12/22 03:30:15;;;;;;;19.53;14.00;;;6.30;99.90;;;;;;5031715;28;20602;-73
2020/12/22 03:32:41;;;;;;;20.57;14.17;;;6.30;99.90;;;;;;5032274;28;20178;-74
2020/12/22 03:35:08;;;;;;;18.90;12.63;;;6.30;99.90;;;;;;5032327;28;20772;-73
2020/12/22 03:37:35;;;;;;;22.10;14.03;;;6.30;99.90;;;;;;5032159;28;20413;-73
2020/12/22 03:40:01;;;;;;;20.20;13.90;;;6.30;99.90;;;;;;5031319;28;20425;-73
2020/12/22 03:42:30;;;;;;;21.77;14.20;;;6.30;99.90;;;;;;5032355;28;20406;-73
2020/12/22 03:44:59;;;;;;;21.20;15.80;;;6.30;99.90;;;;;;5032350;28;20242;-74
2020/12/22 03:47:24;;;;;;;19.43;14.07;;;6.30;99.90;;;;;;5031948;28;20457;-74
2020/12/22 03:49:50;;;;;;;22.83;16.10;;;6.30;99.90;;;;;;5031781;28;20430;-73
2020/12/22 03:52:15;;;;;;;21.50;15.43;;;6.30;99.90;;;;;;5031781;28;20167;-73
2020/12/22 03:54:41;;;;;;;19.77;13.67;;;6.40;99.90;;;;;;5032130;28;20191;-73
2020/12/22 03:57:07;;;;;;;22.90;14.70;;;6.40;99.90;;;;;;5031963;28;20254;-73
2020/12/22 03:59:34;;;;;;;23.87;14.40;;;6.40;99.90;;;;;;5031549;28;20184;-73
2020/12/22 04:02:00;;;;;;;22.73;15.87;;;6.40;99.90;;;;;;5032458;28;20925;-73
2020/12/22 04:04:26;;;;;;;21.47;14.70;;;6.40;99.90;;;;;;5032162;28;20413;-74
2020/12/22 04:06:57;;;;;;;20.40;13.93;;;6.40;99.90;;;;;;5032616;28;20940;-75
2020/12/22 04:09:29;;;;;;;21.93;12.57;;;6.40;99.90;;;;;;5032395;28;20219;-76
2020/12/22 04:12:05;;;;;;;23.47;14.73;;;6.50;99.90;;;;;;5032433;28;20406;-75
2020/12/22 04:14:31;;;;;;;20.07;13.17;;;6.50;99.90;;;;;;5030588;28;20780;-74
2020/12/22 04:16:56;;;;;;;18.10;13.30;;;6.50;99.90;;;;;;5031788;28;20493;-75
2020/12/22 04:19:22;;;;;;;22.17;14.17;;;6.50;99.90;;;;;;5031646;28;20217;-75
2020/12/22 04:21:48;;;;;;;22.63;14.03;;;6.50;99.90;;;;;;5032518;28;20636;-74
2020/12/22 04:24:13;;;;;;;20.27;14.53;;;6.50;99.90;;;;;;5031749;28;20206;-74
2020/12/22 04:26:39;;;;;;;20.60;13.43;;;6.60;99.90;;;;;;5031570;28;20179;-74
2020/12/22 04:29:04;;;;;;;20.10;13.37;;;6.60;99.90;;;;;;5031323;28;20211;-75
2020/12/22 04:31:30;;;;;;;19.43;13.47;;;6.60;99.90;;;;;;5031624;28;20638;-75
2020/12/22 04:33:56;;;;;;;23.03;15.33;;;6.60;99.90;;;;;;5032028;28;20174;-75
2020/12/22 04:36:23;;;;;;;17.80;13.73;;;6.60;99.90;;;;;;5031535;28;20698;-75
2020/12/22 04:38:50;;;;;;;21.07;13.70;;;6.60;99.90;;;;;;5031413;28;20426;-74
2020/12/22 04:41:18;;;;;;;18.53;14.03;;;6.60;99.90;;;;;;5031088;28;20410;-74
2020/12/22 04:43:44;;;;;;;23.57;13.60;;;6.70;99.90;;;;;;5031314;28;20415;-74
2020/12/22 04:46:11;;;;;;;18.10;13.40;;;6.70;99.90;;;;;;5031219;28;20414;-74
2020/12/22 04:48:38;;;;;;;17.63;12.17;;;6.70;99.90;;;;;;5031633;28;20454;-74
2020/12/22 04:51:08;;;;;;;20.97;12.50;;;6.70;99.90;;;;;;5031162;28;20441;-74
2020/12/22 04:53:35;;;;;;;19.60;12.60;;;6.80;99.90;;;;;;5032126;28;20430;-74
2020/12/22 04:56:08;;;;;;;15.20;11.60;;;6.80;99.90;;;;;;5031605;28;20402;-75
2020/12/22 04:58:35;;;;;;;18.93;13.53;;;6.80;99.90;;;;;;5031861;28;20811;-74
2020/12/22 05:01:01;;;;;;;18.40;12.80;;;6.80;99.90;;;;;;5031672;28;20422;-74
2020/12/22 05:03:26;;;;;;;20.03;12.37;;;6.80;99.90;;;;;;5031477;28;20796;-74
2020/12/22 05:05:53;;;;;;;21.77;13.93;;;6.90;99.90;;;;;;5035244;28;20422;-74
2020/12/22 05:08:19;;;;;;;17.67;13.00;;;6.90;99.90;;;;;;5035189;28;20566;-74
2020/12/22 05:10:46;;;;;;;17.27;12.60;;;6.90;99.90;;;;;;5034413;28;20442;-74
2020/12/22 05:13:13;;;;;;;16.57;12.03;;;7.00;99.90;;;;;;5034362;28;20398;-74
2020/12/22 05:15:42;;;;;;;16.33;11.77;;;7.00;99.90;;;;;;5034970;28;20490;-74
2020/12/22 05:18:08;;;;;;;18.10;13.20;;;7.00;99.90;;;;;;5034853;28;20496;-74
2020/12/22 05:20:34;;;;;;;18.33;12.40;;;7.10;99.90;;;;;;5034934;28;20958;-74
2020/12/22 05:23:01;;;;;;;16.20;11.37;;;7.10;99.90;;;;;;5034307;28;20434;-73
2020/12/22 05:25:28;;;;;;;16.53;12.50;;;7.10;99.90;;;;;;5034784;28;20195;-74
2020/12/22 05:27:55;;;;;;;14.37;11.40;;;7.10;99.90;;;;;;5033265;28;20453;-74
2020/12/22 05:30:21;;;;;;;16.00;12.17;;;7.20;99.90;;;;;;5032947;28;20827;-75
2020/12/22 05:32:53;;;;;;;21.23;13.87;;;7.20;99.90;;;;;;5034614;28;20403;-74
2020/12/22 05:35:19;;;;;;;16.70;11.93;;;7.20;99.90;;;;;;5034791;28;20399;-75
2020/12/22 05:37:47;;;;;;;15.63;10.63;;;7.20;99.90;;;;;;5034121;28;20452;-75
2020/12/22 05:40:14;;;;;;;17.73;11.33;;;7.20;99.90;;;;;;5034615;28;20477;-75
2020/12/22 05:42:41;;;;;;;17.40;11.53;;;7.30;99.90;;;;;;5034207;28;20421;-75
2020/12/22 05:45:07;;;;;;;16.07;11.57;;;7.30;99.90;;;;;;5034525;28;20406;-75
2020/12/22 05:47:33;;;;;;;17.13;10.60;;;7.30;99.90;;;;;;5034022;28;20446;-74
2020/12/22 05:50:00;;;;;;;15.23;11.70;;;7.30;99.90;;;;;;5034074;28;20488;-75
2020/12/22 05:52:29;;;;;;;14.67;10.53;;;7.40;99.90;;;;;;5034059;28;20560;-74
2020/12/22 05:55:00;;;;;;;12.97;9.67;;;7.40;99.90;;;;;;5034421;28;20398;-75
2020/12/22 05:57:30;;;;;;;17.20;11.53;;;7.40;99.90;;;;;;5033759;28;20802;-75
2020/12/22 05:59:59;;;;;;;15.93;10.70;;;7.40;99.90;;;;;;5034004;28;20483;-75
2020/12/22 06:02:30;;;;;;;15.00;9.70;;;7.50;99.90;;;;;;5034657;28;20473;-75
2020/12/22 06:04:57;;;;;;;12.83;10.27;;;7.50;99.90;;;;;;5033072;28;20414;-75
2020/12/22 06:07:23;;;;;;;12.60;9.20;;;7.60;99.90;;;;;;5033874;28;20449;-75
2020/12/22 06:09:52;;;;;;;15.70;11.00;;;7.60;99.90;;;;;;5032868;28;20450;-75
2020/12/22 06:12:20;;;;;;;19.20;10.60;;;7.60;99.90;;;;;;5033808;28;20406;-76
2020/12/22 06:14:49;;;;;;;12.77;10.03;;;7.60;99.90;;;;;;5033473;28;20473;-74
2020/12/22 06:17:15;;;;;;;16.60;10.23;;;7.60;99.90;;;;;;5033109;28;20414;-75
2020/12/22 06:19:42;;;;;;;11.50;8.67;;;7.70;99.90;;;;;;5033511;28;20426;-74
2020/12/22 06:22:12;;;;;;;11.27;8.73;;;7.70;99.90;;;;;;5033523;28;20414;-75
2020/12/22 06:24:41;;;;;;;13.40;9.23;;;7.70;99.90;;;;;;5031663;28;20422;-75
2020/12/22 06:27:08;;;;;;;12.03;9.30;;;7.80;99.90;;;;;;5033124;28;20537;-74
2020/12/22 06:29:35;;;;;;;13.80;9.40;;;7.80;99.90;;;;;;5032761;28;20422;-74
2020/12/22 06:32:27;;;;;;;12.37;8.73;;;7.80;99.90;;;;;;5033156;28;20411;-74
2020/12/22 06:34:54;;;;;;;11.57;8.83;;;7.90;99.90;;;;;;5033504;28;20799;-74
2020/12/22 06:37:39;;;;;;;12.63;8.60;;;7.90;99.90;;;;;;5033328;28;20410;-74
2020/12/22 06:40:06;;;;;;;8.90;8.00;;;7.90;99.90;;;;;;5032990;28;20426;-74
2020/12/22 06:42:32;;;;;;;11.37;7.97;;;7.90;99.90;;;;;;5033286;28;20951;-74
2020/12/22 06:45:24;;;;;;;9.53;7.77;;;8.00;99.90;;;;;;5033232;28;20497;-75
2020/12/22 06:47:50;;;;;;;8.33;6.37;;;8.00;99.90;;;;;;5032958;28;20202;-75
2020/12/22 06:50:34;;;;;;;8.67;7.77;;;8.00;99.90;;;;;;5032743;28;20422;-75
2020/12/22 06:53:00;;;;;;;10.47;7.90;;;8.10;99.90;;;;;;5033177;28;20800;-75
2020/12/22 06:55:49;;;;;;;11.20;8.20;;;8.10;99.90;;;;;;5033170;28;20425;-75
2020/12/22 06:58:41;;;;;;;11.20;9.40;;;8.20;99.90;;;;;;5033615;28;20643;-75
2020/12/22 07:01:25;;;;;;;9.97;6.87;;;8.20;99.90;;;;;;5032725;28;20402;-74
2020/12/22 07:04:17;;;;;;;8.57;6.70;;;8.30;99.90;;;;;;5032807;28;20485;-74
2020/12/22 07:06:49;;;;;;;7.80;6.07;;;8.30;99.90;;;;;;5032850;28;20402;-74
2020/12/22 07:09:18;;;;;;;8.93;7.40;;;8.40;99.90;;;;;;5032607;28;20446;-74
2020/12/22 07:11:46;;;;;;;7.70;6.90;;;8.40;99.90;;;;;;5031333;28;20414;-74
2020/12/22 07:14:22;;;;;;;11.20;6.80;;;8.50;99.90;;;;;;5032733;28;20446;-74
2020/12/22 07:17:00;;;;;;;11.87;7.50;;;8.50;99.90;;;;;;5032437;28;20403;-74
2020/12/22 07:19:29;;;;;;;7.33;6.33;;;8.50;99.90;;;;;;5032210;28;20780;-74
2020/12/22 07:21:59;;;;;;;7.43;6.43;;;8.60;99.90;;;;;;5032294;28;20409;-73
2020/12/22 07:24:36;;;;;;;7.17;5.80;;;8.60;99.90;;;;;;5032388;28;20407;-74
2020/12/22 07:27:03;;;;;;;8.10;6.70;;;8.70;99.90;;;;;;5031684;28;20406;-73
2020/12/22 07:29:28;;;;;;;7.57;6.67;;;8.70;99.90;;;;;;5030844;28;20436;-73
2020/12/22 07:31:53;;;;;;;8.13;7.07;;;8.80;99.90;;;;;;5032069;28;20402;-73
2020/12/22 07:34:20;;;;;;;8.70;6.60;;;8.80;99.90;;;;;;5031875;28;20227;-73
2020/12/22 07:36:46;;;;;;;8.13;7.07;;;8.80;99.90;;;;;;5032475;28;20168;-74
2020/12/22 07:39:17;;;;;;;7.83;6.40;;;8.80;99.90;;;;;;5032238;28;20514;-73
2020/12/22 07:41:43;;;;;;;6.67;6.07;;;8.90;99.90;;;;;;5031998;28;20398;-73
2020/12/22 07:44:14;;;;;;;7.07;6.33;;;8.90;99.90;;;;;;5032148;28;20403;-72
2020/12/22 07:46:40;;;;;;;9.57;6.60;;;9.00;99.90;;;;;;5032194;28;20395;-72
2020/12/22 07:49:07;;;;;;;8.50;5.33;;;9.00;99.90;;;;;;5031801;28;20462;-72
2020/12/22 07:51:34;;;;;;;7.17;6.00;;;9.00;99.90;;;;;;5031569;28;20406;-72
2020/12/22 07:54:04;;;;;;;8.13;5.90;;;9.00;99.90;;;;;;5031803;28;20459;-72
2020/12/22 07:56:35;;;;;;;6.60;6.00;;;9.10;99.90;;;;;;5030555;28;20489;-72
2020/12/22 07:59:12;;;;;;;6.60;6.00;;;9.10;99.90;;;;;;5031870;28;20433;-72
2020/12/22 08:01:38;;;;;;;6.47;5.20;;;9.10;99.90;;;;;;5031519;28;20402;-73
2020/12/22 08:04:27;;;;;;;8.30;6.80;;;9.20;99.90;;;;;;5031783;28;20904;-73
2020/12/22 08:07:08;;;;;;;9.70;7.03;;;9.30;99.90;;;;;;5031663;28;20442;-73
2020/12/22 08:09:34;;;;;;;6.23;5.63;;;9.30;99.90;;;;;;5031701;28;20529;-73
2020/12/22 08:12:02;;;;;;;4.60;4.20;;;9.30;99.90;;;;;;5031441;28;20407;-73
2020/12/22 08:14:30;;;;;;;6.90;4.73;;;9.40;99.90;;;;;;5031686;28;20438;-72
2020/12/22 08:16:58;;;;;;;6.03;4.83;;;9.40;99.90;;;;;;5031848;28;20486;-72
2020/12/22 08:19:27;;;;;;;5.50;4.10;;;9.40;99.90;;;;;;5031740;28;20427;-72
2020/12/22 08:21:55;;;;;;;4.80;4.30;;;9.50;99.90;;;;;;5031332;28;20403;-72
2020/12/22 08:24:20;;;;;;;4.33;3.93;;;9.50;99.90;;;;;;5031179;28;20430;-72
2020/12/22 08:26:50;;;;;;;3.87;3.53;;;9.60;99.90;;;;;;5030229;28;20958;-72
2020/12/22 08:29:17;;;;;;;3.10;2.80;;;9.60;99.90;;;;;;5031786;28;20227;-71
2020/12/22 08:31:44;;;;;;;4.60;4.20;;;9.60;99.90;;;;;;5031535;28;20395;-70
2020/12/22 08:34:13;;;;;;;5.50;4.00;;;9.70;99.90;;;;;;5030406;28;20411;-71
2020/12/22 08:36:40;;;;;;;5.10;4.27;;;9.70;99.90;;;;;;5031284;28;20399;-71
2020/12/22 08:39:24;;;;;;;4.17;3.77;;;9.80;99.90;;;;;;5032794;28;20791;-71
2020/12/22 08:41:51;;;;;;;3.30;2.73;;;9.80;99.90;;;;;;5035326;28;20467;-72
2020/12/22 08:44:17;;;;;;;2.57;2.30;;;9.80;99.90;;;;;;5034889;28;20424;-71
2020/12/22 08:46:44;;;;;;;2.53;2.33;;;9.90;99.90;;;;;;5035180;28;20403;-71
2020/12/22 08:49:21;;;;;;;2.70;2.03;;;9.90;99.90;;;;;;5033640;28;20457;-71
2020/12/22 08:51:47;;;;;;;2.50;2.30;;;9.90;99.90;;;;;;5035150;28;20403;-72
2020/12/22 08:54:14;;;;;;;2.60;2.30;;;10.00;99.90;;;;;;5034502;28;20398;-71
2020/12/22 08:56:42;;;;;;;2.33;2.13;;;10.00;99.90;;;;;;5035107;28;20844;-72
2020/12/22 08:59:09;;;;;;;7.37;2.07;;;10.10;99.90;;;;;;5035040;28;20752;-72
2020/12/22 09:01:42;;;;;;;2.73;1.77;;;10.10;99.90;;;;;;5034899;28;20414;-72
2020/12/22 09:04:09;;;;;;;4.03;2.10;;;10.10;99.90;;;;;;5034954;28;20417;-72
2020/12/22 09:06:40;;;;;;;1.80;1.70;;;10.20;99.90;;;;;;5034958;28;20450;-72
2020/12/22 09:09:08;;;;;;;3.33;1.93;;;10.20;99.90;;;;;;5034718;28;20478;-71
2020/12/22 09:11:34;;;;;;;2.33;2.13;;;10.20;99.90;;;;;;5034792;28;20409;-72
2020/12/22 09:14:00;;;;;;;4.13;1.90;;;10.20;99.90;;;;;;5034231;28;20775;-72
2020/12/22 09:16:52;;;;;;;2.00;1.70;;;10.20;99.90;;;;;;5034439;28;20759;-72
2020/12/22 09:19:23;;;;;;;1.60;1.50;;;10.30;99.90;;;;;;5034826;28;20418;-72
2020/12/22 09:21:57;;;;;;;1.60;1.50;;;10.30;99.90;;;;;;5035145;28;20789;-72
2020/12/22 09:24:23;;;;;;;1.50;1.40;;;10.40;99.90;;;;;;5034104;28;20770;-72
2020/12/22 09:26:56;;;;;;;2.23;1.80;;;10.40;99.90;;;;;;5034398;28;20398;-72
2020/12/22 09:29:22;;;;;;;1.40;1.30;;;10.40;99.90;;;;;;5034261;28;20278;-72
2020/12/22 09:31:48;;;;;;;1.67;1.43;;;10.50;99.90;;;;;;5034348;28;20811;-72
2020/12/22 09:34:13;;;;;;;2.43;1.83;;;10.50;99.90;;;;;;5033812;28;20399;-72
2020/12/22 09:36:39;;;;;;;2.37;1.67;;;10.60;99.90;;;;;;5034701;28;20946;-72
2020/12/22 09:39:05;;;;;;;2.03;1.83;;;10.60;99.90;;;;;;5033624;28;20230;-72
2020/12/22 09:41:31;;;;;;;4.90;4.00;;;10.60;99.90;;;;;;5032089;28;20304;-71
2020/12/22 09:43:57;;;;;;;4.37;3.53;;;10.70;99.90;;;;;;5034429;28;20206;-71
2020/12/22 09:46:23;;;;;;;3.40;3.10;;;10.80;99.90;;;;;;5034035;28;20407;-72
2020/12/22 09:48:48;;;;;;;2.60;2.40;;;10.80;99.90;;;;;;5031314;28;20256;-70
2020/12/22 09:51:15;;;;;;;1.30;1.20;;;10.80;99.90;;;;;;5033015;28;20175;-70
2020/12/22 09:53:40;;;;;;;3.00;1.47;;;10.80;99.90;;;;;;5033983;28;20642;-70
2020/12/22 09:56:05;;;;;;;1.40;1.30;;;10.90;99.90;;;;;;5033607;28;20407;-70
2020/12/22 09:58:31;;;;;;;1.80;1.40;;;10.90;99.90;;;;;;5033054;28;20178;-70
2020/12/22 10:00:56;;;;;;;1.73;1.63;;;10.90;99.90;;;;;;5033885;28;20722;-70
2020/12/22 10:03:22;;;;;;;2.23;1.47;;;11.00;99.90;;;;;;5033801;28;20596;-70
2020/12/22 10:05:50;;;;;;;1.47;1.37;;;11.00;99.90;;;;;;5033624;28;20188;-70
2020/12/22 10:08:16;;;;;;;1.77;1.60;;;11.00;99.90;;;;;;5033235;28;20239;-70
2020/12/22 10:10:41;;;;;;;1.40;1.30;;;11.00;99.90;;;;;;5033063;28;20486;-70
2020/12/22 10:13:07;;;;;;;3.43;1.40;;;11.10;99.90;;;;;;5033549;28;20218;-70
2020/12/22 10:15:32;;;;;;;1.63;1.50;;;11.20;99.90;;;;;;5033583;28;20168;-71
2020/12/22 10:17:57;;;;;;;1.30;1.20;;;11.20;99.90;;;;;;5032133;28;20716;-71
2020/12/22 10:20:23;;;;;;;1.90;1.20;;;11.20;99.90;;;;;;5033508;28;20606;-71
2020/12/22 10:22:48;;;;;;;2.37;1.10;;;11.20;99.90;;;;;;5027137;28;20224;-71
2020/12/22 10:25:14;;;;;;;1.20;1.10;;;11.30;99.90;;;;;;5013425;28;20255;-69
2020/12/22 10:27:39;;;;;;;1.27;1.03;;;11.30;99.90;;;;;;5013365;28;20242;-71
2020/12/22 10:30:05;;;;;;;3.03;2.07;;;11.40;99.90;;;;;;5013627;28;20763;-71
2020/12/22 10:32:31;;;;;;;1.33;1.20;;;11.40;99.90;;;;;;5013407;28;20172;-70
2020/12/22 10:34:57;;;;;;;3.33;1.40;;;11.40;99.90;;;;;;5013438;28;20746;-70
2020/12/22 10:37:23;;;;;;;1.40;1.30;;;11.40;99.90;;;;;;5013258;28;20216;-70
2020/12/22 10:39:52;;;;;;;1.37;1.17;;;11.40;99.90;;;;;;5013070;28;20199;-71
2020/12/22 10:42:18;;;;;;;1.40;1.30;;;11.40;99.90;;;;;;5013560;28;20407;-72
2020/12/22 10:44:44;;;;;;;2.50;1.47;;;11.40;99.90;;;;;;5013329;28;20411;-70
2020/12/22 10:47:10;;;;;;;1.80;1.20;;;11.40;99.90;;;;;;5013079;28;20896;-70
2020/12/22 10:49:35;;;;;;;1.50;1.40;;;11.50;99.90;;;;;;5013131;28;20242;-70
2020/12/22 10:52:01;;;;;;;1.30;1.20;;;11.50;99.90;;;;;;5013076;28;20408;-70
2020/12/22 10:54:26;;;;;;;1.10;1.00;;;11.50;99.90;;;;;;5013411;28;20175;-72
2020/12/22 10:56:52;;;;;;;1.37;1.23;;;11.50;99.90;;;;;;5018575;28;20187;-71
2020/12/22 10:59:20;;;;;;;1.43;1.33;;;11.60;99.90;;;;;;5032570;28;20202;-72
2020/12/22 11:01:47;;;;;;;1.53;1.43;;;11.60;99.90;;;;;;5032528;28;20650;-72
2020/12/22 11:04:13;;;;;;;3.00;2.17;;;11.60;99.90;;;;;;5032983;28;20409;-71
2020/12/22 11:09:23;;;;;;;1.23;1.13;;;11.70;99.90;;;;;;5033029;28;20565;-72
2020/12/22 11:11:48;;;;;;;1.20;1.10;;;11.70;99.90;;;;;;5032892;28;20402;-70
2020/12/22 11:14:14;;;;;;;1.20;1.07;;;11.80;99.90;;;;;;5032549;28;20160;-70
2020/12/22 11:16:39;;;;;;;1.53;1.37;;;11.80;99.90;;;;;;5031246;28;20258;-70
2020/12/22 11:19:05;;;;;;;1.47;1.37;;;11.90;99.90;;;;;;5032542;28;20527;-71
2020/12/22 11:21:31;;;;;;;5.43;2.07;;;11.90;99.90;;;;;;5032500;28;20171;-70
2020/12/22 11:23:56;;;;;;;2.23;1.37;;;12.00;99.90;;;;;;5032231;28;20852;-69
2020/12/22 11:26:25;;;;;;;5.17;3.30;;;11.90;99.90;;;;;;5030820;28;20167;-69
2020/12/22 11:28:51;;;;;;;2.97;2.30;;;12.00;99.90;;;;;;5032111;28;20203;-70
2020/12/22 11:31:17;;;;;;;1.70;1.60;;;12.00;99.90;;;;;;5032219;28;20713;-70
2020/12/22 11:33:43;;;;;;;1.30;1.20;;;12.10;99.90;;;;;;5032686;28;20453;-70
2020/12/22 11:36:14;;;;;;;1.63;1.53;;;12.10;99.90;;;;;;5032057;28;20592;-70
2020/12/22 11:38:40;;;;;;;1.93;1.33;;;12.10;99.90;;;;;;5031959;28;20408;-70
2020/12/22 11:41:06;;;;;;;1.63;1.50;;;12.20;99.90;;;;;;5032189;28;20411;-70
2020/12/22 11:43:32;;;;;;;1.47;1.20;;;12.20;99.90;;;;;;5032149;28;20405;-70
2020/12/22 11:45:57;;;;;;;6.00;1.30;;;12.20;99.90;;;;;;5032109;28;20406;-70
2020/12/22 11:48:24;;;;;;;1.20;1.10;;;12.30;99.90;;;;;;5031807;28;20449;-70
2020/12/22 11:50:54;;;;;;;2.37;1.23;;;12.20;99.90;;;;;;5031958;28;20769;-71
2020/12/22 11:53:20;;;;;;;1.37;1.27;;;12.20;99.90;;;;;;5032117;28;20442;-70
2020/12/22 11:55:46;;;;;;;1.30;1.20;;;12.20;99.90;;;;;;5031917;28;20413;-71
2020/12/22 11:58:11;;;;;;;1.40;1.30;;;12.30;99.90;;;;;;5031496;28;20415;-70
2020/12/22 12:00:37;;;;;;;1.30;1.20;;;12.30;99.90;;;;;;5014737;28;20222;-70
2020/12/22 12:03:03;;;;;;;1.27;1.17;;;12.30;99.90;;;;;;5012022;28;20176;-70
2020/12/22 12:05:28;;;;;;;1.67;1.50;;;12.40;99.90;;;;;;5010977;28;20203;-70
2020/12/22 12:07:54;;;;;;;1.93;1.73;;;12.50;99.90;;;;;;5011944;28;20559;-70
2020/12/22 12:10:19;;;;;;;1.50;1.40;;;12.50;99.90;;;;;;5011986;28;20250;-70
2020/12/22 12:12:45;;;;;;;1.87;1.00;;;12.50;99.90;;;;;;5013026;28;20274;-70
2020/12/22 12:15:10;;;;;;;1.50;1.40;;;12.50;99.90;;;;;;5016201;28;20176;-70
2020/12/22 12:17:37;;;;;;;1.73;1.10;;;12.60;99.90;;;;;;5015953;28;20182;-70
2020/12/22 12:20:03;;;;;;;3.37;1.30;;;12.70;99.90;;;;;;5015897;28;20194;-70
2020/12/22 12:22:28;;;;;;;1.50;1.40;;;12.80;99.90;;;;;;5018735;28;20414;-70
2020/12/22 12:24:54;;;;;;;1.83;1.53;;;12.90;99.90;;;;;;5015837;28;20469;-70
2020/12/22 12:27:19;;;;;;;1.77;1.60;;;12.90;99.90;;;;;;5015830;28;20188;-75
2020/12/22 12:29:45;;;;;;;2.43;1.63;;;13.00;99.90;;;;;;5015760;28;20203;-70
2020/12/22 12:32:10;;;;;;;1.27;1.17;;;13.00;99.90;;;;;;5015764;28;20165;-71
2020/12/22 12:34:35;;;;;;;1.77;1.67;;;13.00;99.90;;;;;;5033848;28;20543;-71
2020/12/22 12:37:01;;;;;;;2.50;2.23;;;13.00;99.90;;;;;;5035461;28;20191;-71
2020/12/22 12:39:26;;;;;;;3.73;1.63;;;13.10;99.90;;;;;;5035491;28;20203;-71
2020/12/22 12:41:52;;;;;;;1.67;1.57;;;13.10;99.90;;;;;;5035573;28;20159;-71
2020/12/22 12:44:17;;;;;;;1.97;1.47;;;13.30;99.90;;;;;;5035486;28;20168;-70
2020/12/22 12:46:44;;;;;;;3.00;2.00;;;13.30;99.90;;;;;;5035078;28;20613;-71